createdAt,value
2022-09-28T00:02:03.980Z,20.38
2022-09-28T00:04:30.576Z,20.38
2022-09-28T00:06:56.907Z,20.37
2022-09-28T00:09:23.251Z,20.34
2022-09-28T00:11:50.861Z,20.13
2022-09-28T00:14:17.205Z,20.06
2022-09-28T00:16:44.165Z,20.20
2022-09-28T00:19:11.305Z,20.31
2022-09-28T00:21:38.752Z,20.34
2022-09-28T00:24:06.326Z,20.33
2022-09-28T00:26:33.500Z,20.33
2022-09-28T00:29:02.022Z,20.35
2022-09-28T00:31:29.524Z,20.41
2022-09-28T00:33:56.302Z,20.43
2022-09-28T00:36:23.113Z,20.43
2022-09-28T00:38:49.795Z,20.19
2022-09-28T00:41:17.376Z,20.07
2022-09-28T00:43:43.729Z,20.18
2022-09-28T00:46:14.547Z,20.29
2022-09-28T00:48:44.233Z,20.32
2022-09-28T00:51:11.892Z,20.36
2022-09-28T00:53:40.112Z,20.38
2022-09-28T00:56:08.446Z,20.37
2022-09-28T00:58:36.248Z,20.39
2022-09-28T01:01:03.531Z,20.39
2022-09-28T01:03:32.499Z,20.17
2022-09-28T01:05:59.910Z,20.09
2022-09-28T01:08:27.121Z,20.21
2022-09-28T01:10:53.545Z,20.25
2022-09-28T01:13:20.665Z,20.32
2022-09-28T01:15:52.955Z,20.35
2022-09-28T01:18:22.712Z,20.39
2022-09-28T01:20:54.384Z,20.35
2022-09-28T01:23:31.910Z,20.35
2022-09-28T01:26:03.383Z,20.35
2022-09-28T01:28:31.455Z,20.23
2022-09-28T01:31:01.615Z,20.02
2022-09-28T01:33:31.265Z,20.14
2022-09-28T01:35:59.989Z,20.22
2022-09-28T01:38:28.441Z,20.27
2022-09-28T01:40:55.962Z,20.34
2022-09-28T01:43:24.293Z,20.33
2022-09-28T01:45:54.230Z,20.37
2022-09-28T01:48:24.480Z,20.35
2022-09-28T01:50:53.466Z,20.36
2022-09-28T01:53:22.088Z,20.36
2022-09-28T01:55:50.670Z,20.37
2022-09-28T01:58:18.903Z,20.25
2022-09-28T02:00:48.276Z,20.03
2022-09-28T02:03:19.283Z,20.14
2022-09-28T02:05:48.667Z,20.21
2022-09-28T02:08:17.958Z,20.30
2022-09-28T02:10:48.758Z,20.27
2022-09-28T02:13:16.730Z,20.36
2022-09-28T02:15:46.041Z,20.31
2022-09-28T02:18:12.932Z,20.31
2022-09-28T02:20:42.425Z,20.35
2022-09-28T02:23:09.496Z,20.35
2022-09-28T02:25:39.562Z,20.31
2022-09-28T02:28:07.550Z,20.05
2022-09-28T02:30:35.890Z,20.10
2022-09-28T02:33:05.895Z,20.22
2022-09-28T02:35:32.233Z,20.26
2022-09-28T02:37:59.963Z,20.31
2022-09-28T02:40:31.056Z,20.32
2022-09-28T02:43:01.932Z,20.38
2022-09-28T02:45:36.280Z,20.31
2022-09-28T02:48:08.360Z,20.34
2022-09-28T02:50:39.061Z,20.34
2022-09-28T02:53:18.431Z,20.18
2022-09-28T02:55:55.419Z,20.00
2022-09-28T02:58:30.463Z,20.14
2022-09-28T03:01:01.730Z,20.23
2022-09-28T03:03:31.269Z,20.29
2022-09-28T03:06:00.004Z,20.28
2022-09-28T03:08:29.962Z,20.34
2022-09-28T03:10:59.073Z,20.34
2022-09-28T03:13:25.902Z,20.34
2022-09-28T03:15:52.216Z,20.33
2022-09-28T03:18:18.667Z,20.33
2022-09-28T03:20:45.007Z,20.16
2022-09-28T03:23:26.917Z,20.02
2022-09-28T03:25:54.655Z,20.15
2022-09-28T03:28:21.098Z,20.26
2022-09-28T03:30:47.676Z,20.25
2022-09-28T03:33:14.154Z,20.25
2022-09-28T03:35:40.615Z,20.32
2022-09-28T03:38:06.978Z,20.31
2022-09-28T03:40:33.435Z,20.40
2022-09-28T03:43:01.218Z,20.36
2022-09-28T03:45:27.593Z,20.18
2022-09-28T03:47:54.094Z,20.01
2022-09-28T03:50:20.444Z,20.10
2022-09-28T03:52:46.803Z,20.21
2022-09-28T03:55:13.128Z,20.25
2022-09-28T03:57:39.467Z,20.29
2022-09-28T04:00:07.659Z,20.32
2022-09-28T04:02:34.187Z,20.35
2022-09-28T04:05:00.582Z,20.36
2022-09-28T04:07:30.793Z,20.33
2022-09-28T04:09:57.527Z,20.30
2022-09-28T04:12:23.919Z,20.08
2022-09-28T04:14:50.259Z,20.05
2022-09-28T04:17:17.948Z,20.18
2022-09-28T04:19:44.262Z,20.25
2022-09-28T04:22:10.595Z,20.26
2022-09-28T04:24:36.933Z,20.31
2022-09-28T04:27:03.422Z,20.32
2022-09-28T04:29:29.785Z,20.31
2022-09-28T04:31:56.250Z,20.27
2022-09-28T04:34:24.042Z,20.29
2022-09-28T04:36:50.391Z,20.34
2022-09-28T04:39:17.512Z,20.33
2022-09-28T04:41:44.075Z,20.18
2022-09-28T04:44:10.488Z,20.03
2022-09-28T04:46:36.865Z,20.13
2022-09-28T04:49:03.356Z,20.21
2022-09-28T04:51:31.755Z,20.25
2022-09-28T04:53:58.081Z,20.30
2022-09-28T04:56:24.443Z,20.29
2022-09-28T04:58:52.855Z,20.31
2022-09-28T05:01:19.821Z,20.34
2022-09-28T05:03:46.440Z,20.32
2022-09-28T05:06:13.658Z,20.29
2022-09-28T05:08:41.518Z,20.19
2022-09-28T05:11:10.055Z,20.01
2022-09-28T05:13:39.780Z,20.10
2022-09-28T05:16:06.490Z,20.18
2022-09-28T05:18:32.843Z,20.20
2022-09-28T05:20:59.174Z,20.23
2022-09-28T05:23:25.510Z,20.27
2022-09-28T05:25:53.155Z,19.81
2022-09-28T05:28:22.532Z,19.49
2022-09-28T05:30:48.934Z,19.21
2022-09-28T05:33:15.262Z,19.18
2022-09-28T05:35:41.563Z,19.15
2022-09-28T05:38:08.034Z,19.28
2022-09-28T05:40:34.451Z,19.68
2022-09-28T05:43:02.223Z,19.86
2022-09-28T05:45:28.869Z,19.94
2022-09-28T05:47:55.360Z,20.00
2022-09-28T05:50:21.794Z,20.10
2022-09-28T05:52:56.676Z,20.08
2022-09-28T05:55:23.019Z,20.05
2022-09-28T05:57:49.357Z,19.91
2022-09-28T06:00:17.046Z,19.79
2022-09-28T06:02:43.477Z,19.89
2022-09-28T06:05:09.970Z,20.10
2022-09-28T06:07:36.284Z,20.16
2022-09-28T06:10:02.814Z,20.16
2022-09-28T06:12:29.124Z,20.14
2022-09-28T06:14:55.448Z,20.18
2022-09-28T06:17:23.108Z,20.18
2022-09-28T06:19:49.538Z,19.94
2022-09-28T06:22:15.889Z,19.96
2022-09-28T06:24:42.202Z,20.11
2022-09-28T06:27:08.532Z,20.18
2022-09-28T06:29:34.908Z,20.18
2022-09-28T06:32:01.395Z,20.25
2022-09-28T06:34:29.080Z,20.27
2022-09-28T06:36:55.482Z,20.27
2022-09-28T06:39:21.814Z,20.26
2022-09-28T06:41:48.265Z,20.21
2022-09-28T06:44:14.776Z,20.00
2022-09-28T06:46:41.323Z,20.11
2022-09-28T06:49:07.768Z,20.24
2022-09-28T06:51:35.451Z,20.29
2022-09-28T06:54:01.909Z,20.29
2022-09-28T06:56:32.565Z,20.33
2022-09-28T06:58:59.312Z,20.34
2022-09-28T07:01:25.785Z,20.37
2022-09-28T07:03:55.498Z,20.40
2022-09-28T07:06:22.298Z,20.44
2022-09-28T07:09:01.343Z,20.45
2022-09-28T07:11:38.002Z,20.49
2022-09-28T07:14:04.488Z,20.38
2022-09-28T07:16:49.615Z,20.19
2022-09-28T07:19:17.203Z,20.35
2022-09-28T07:21:44.274Z,20.46
2022-09-28T07:24:12.636Z,20.61
2022-09-28T07:26:38.981Z,20.61
2022-09-28T07:29:05.329Z,20.18
2022-09-28T07:31:31.641Z,20.51
2022-09-28T07:33:57.950Z,20.67
2022-09-28T07:36:24.343Z,20.71
2022-09-28T07:38:50.676Z,20.67
2022-09-28T07:41:18.496Z,20.36
2022-09-28T07:43:44.837Z,19.82
2022-09-28T07:46:11.334Z,19.38
2022-09-28T07:48:38.983Z,19.29
2022-09-28T07:51:05.390Z,19.38
2022-09-28T07:53:32.086Z,19.35
2022-09-28T07:55:59.342Z,19.26
2022-09-28T07:58:26.943Z,19.16
2022-09-28T08:00:53.355Z,19.43
2022-09-28T08:03:20.506Z,19.47
2022-09-28T08:05:46.905Z,19.28
2022-09-28T08:08:13.651Z,19.25
2022-09-28T08:10:45.801Z,19.50
2022-09-28T08:13:13.374Z,19.52
2022-09-28T08:15:41.035Z,19.42
2022-09-28T08:18:07.536Z,19.50
2022-09-28T08:20:34.277Z,19.50
2022-09-28T08:23:02.747Z,19.33
2022-09-28T08:25:29.202Z,19.11
2022-09-28T08:27:55.524Z,19.18
2022-09-28T08:30:21.956Z,19.67
2022-09-28T08:32:49.657Z,20.10
2022-09-28T08:35:16.046Z,19.90
2022-09-28T08:37:45.875Z,19.29
2022-09-28T08:40:18.608Z,19.02
2022-09-28T08:42:45.008Z,18.95
2022-09-28T08:45:12.908Z,18.92
2022-09-28T08:47:44.005Z,18.93
2022-09-28T08:50:16.983Z,19.02
2022-09-28T08:52:44.253Z,19.06
2022-09-28T08:55:13.610Z,19.06
2022-09-28T08:57:43.207Z,19.03
2022-09-28T09:00:14.699Z,19.03
2022-09-28T09:02:41.291Z,19.04
2022-09-28T09:05:11.074Z,19.04
2022-09-28T09:07:48.445Z,19.03
2022-09-28T09:10:23.184Z,19.02
2022-09-28T09:12:56.943Z,19.01
2022-09-28T09:15:30.278Z,19.01
2022-09-28T09:18:06.183Z,19.07
2022-09-28T09:20:37.887Z,19.12
2022-09-28T09:23:10.462Z,19.03
2022-09-28T09:25:40.540Z,19.05
2022-09-28T09:28:19.457Z,19.16
2022-09-28T09:30:51.421Z,19.36
2022-09-28T09:33:33.091Z,19.48
2022-09-28T09:36:04.318Z,19.39
2022-09-28T09:38:40.100Z,19.30
2022-09-28T09:43:55.373Z,19.10
2022-09-28T09:46:26.642Z,19.14
2022-09-28T09:48:55.637Z,19.16
2022-09-28T09:51:25.679Z,19.13
2022-09-28T09:53:55.511Z,19.15
2022-09-28T09:56:26.309Z,19.15
2022-09-28T09:58:56.014Z,19.10
2022-09-28T10:01:26.833Z,19.10
2022-09-28T10:03:54.530Z,19.10
2022-09-28T10:06:25.077Z,19.36
2022-09-28T10:08:56.471Z,19.95
2022-09-28T10:11:27.468Z,19.96
2022-09-28T10:13:54.058Z,19.79
2022-09-28T10:16:20.415Z,20.14
2022-09-28T10:18:47.211Z,20.22
2022-09-28T10:21:13.839Z,20.30
2022-09-28T10:23:40.977Z,20.27
2022-09-28T10:26:09.978Z,20.34
2022-09-28T10:28:40.648Z,20.39
2022-09-28T10:31:21.930Z,20.49
2022-09-28T10:33:48.280Z,20.43
2022-09-28T10:36:14.631Z,20.15
2022-09-28T10:38:47.415Z,20.05
2022-09-28T10:41:13.740Z,20.26
2022-09-28T10:43:50.711Z,20.40
2022-09-28T10:46:21.310Z,20.52
2022-09-28T10:48:49.860Z,20.54
2022-09-28T10:51:16.900Z,20.62
2022-09-28T10:53:57.070Z,20.65
2022-09-28T10:56:26.716Z,20.71
2022-09-28T10:58:54.376Z,20.72
2022-09-28T11:01:21.553Z,20.62
2022-09-28T11:03:49.783Z,20.33
2022-09-28T11:06:22.630Z,20.34
2022-09-28T11:08:49.363Z,20.61
2022-09-28T11:11:16.812Z,20.71
2022-09-28T11:13:44.674Z,20.80
2022-09-28T11:16:21.538Z,20.86
2022-09-28T11:18:48.310Z,20.94
2022-09-28T11:21:15.975Z,20.71
2022-09-28T11:23:54.700Z,20.76
2022-09-28T11:26:21.662Z,20.75
2022-09-28T11:28:50.691Z,20.48
2022-09-28T11:31:23.744Z,20.18
2022-09-28T11:33:51.733Z,20.24
2022-09-28T11:36:28.326Z,20.53
2022-09-28T11:39:00.130Z,20.66
2022-09-28T11:41:38.636Z,20.78
2022-09-28T11:44:13.111Z,20.78
2022-09-28T11:46:44.203Z,20.32
2022-09-28T11:49:19.523Z,19.96
2022-09-28T11:51:47.358Z,19.70
2022-09-28T11:54:19.330Z,19.70
2022-09-28T11:56:47.727Z,19.73
2022-09-28T11:59:15.759Z,19.72
2022-09-28T12:01:43.851Z,19.66
2022-09-28T12:04:14.173Z,19.78
2022-09-28T12:06:45.758Z,19.79
2022-09-28T12:09:16.986Z,19.90
2022-09-28T12:11:45.338Z,19.92
2022-09-28T12:14:16.063Z,19.85
2022-09-28T12:17:04.945Z,19.73
2022-09-28T12:19:34.758Z,19.82
2022-09-28T12:22:04.103Z,19.66
2022-09-28T12:24:32.107Z,19.64
2022-09-28T12:27:02.987Z,19.65
2022-09-28T12:29:32.085Z,19.69
2022-09-28T12:32:02.498Z,19.66
2022-09-28T12:34:28.970Z,19.63
2022-09-28T12:37:02.249Z,19.60
2022-09-28T12:39:56.327Z,19.54
2022-09-28T12:42:28.969Z,19.66
2022-09-28T12:45:03.089Z,19.61
2022-09-28T12:47:38.941Z,19.55
2022-09-28T12:50:38.134Z,19.82
2022-09-28T12:53:07.476Z,20.10
2022-09-28T12:55:41.383Z,20.11
2022-09-28T12:58:17.493Z,20.07
2022-09-28T13:00:51.133Z,20.07
2022-09-28T13:03:27.980Z,20.00
2022-09-28T13:06:05.112Z,20.12
2022-09-28T13:08:34.037Z,20.05
2022-09-28T13:11:08.102Z,20.46
2022-09-28T13:13:41.070Z,20.64
2022-09-28T13:16:12.079Z,20.66
2022-09-28T13:18:41.353Z,20.76
2022-09-28T13:21:13.316Z,20.73
2022-09-28T13:23:41.880Z,20.77
2022-09-28T13:26:13.801Z,20.77
2022-09-28T13:28:40.999Z,20.79
2022-09-28T13:31:07.909Z,20.33
2022-09-28T13:33:35.654Z,20.13
2022-09-28T13:36:02.611Z,20.46
2022-09-28T13:38:30.078Z,20.65
2022-09-28T13:41:11.227Z,20.72
2022-09-28T13:43:48.592Z,20.75
2022-09-28T13:46:20.700Z,20.77
2022-09-28T13:48:53.738Z,20.75
2022-09-28T13:51:30.974Z,20.79
2022-09-28T13:54:03.327Z,20.65
2022-09-28T13:56:34.069Z,20.13
2022-09-28T13:59:08.215Z,19.70
2022-09-28T14:01:37.458Z,19.64
2022-09-28T14:04:12.869Z,19.61
2022-09-28T14:06:47.477Z,19.65
2022-09-28T14:09:24.281Z,19.53
2022-09-28T14:11:54.713Z,19.45
2022-09-28T14:14:27.737Z,19.44
2022-09-28T14:17:00.158Z,19.43
2022-09-28T14:19:29.047Z,19.34
2022-09-28T14:22:01.232Z,19.28
2022-09-28T14:24:31.711Z,19.29
2022-09-28T14:27:11.217Z,19.30
2022-09-28T14:29:39.446Z,19.25
2022-09-28T14:32:21.376Z,19.44
2022-09-28T14:34:54.487Z,20.14
2022-09-28T14:37:24.968Z,20.27
2022-09-28T14:39:51.509Z,20.04
2022-09-28T14:42:19.547Z,20.12
2022-09-28T14:45:05.228Z,20.33
2022-09-28T14:47:36.747Z,20.43
2022-09-28T14:50:17.577Z,20.46
2022-09-28T14:52:46.409Z,20.52
2022-09-28T14:55:14.401Z,20.51
2022-09-28T14:57:41.289Z,20.58
2022-09-28T15:00:14.742Z,20.57
2022-09-28T15:02:47.213Z,20.26
2022-09-28T15:05:15.821Z,20.02
2022-09-28T15:07:44.054Z,20.33
2022-09-28T15:10:15.210Z,20.43
2022-09-28T15:12:43.446Z,20.46
2022-09-28T15:15:23.148Z,20.52
2022-09-28T15:17:57.744Z,20.53
2022-09-28T15:20:26.111Z,20.54
2022-09-28T15:22:55.437Z,20.58
2022-09-28T15:25:22.646Z,20.60
2022-09-28T15:27:51.405Z,20.34
2022-09-28T15:30:22.138Z,20.15
2022-09-28T15:32:48.591Z,20.38
2022-09-28T15:35:19.824Z,20.45
2022-09-28T15:37:46.810Z,20.52
2022-09-28T15:40:15.304Z,20.56
2022-09-28T15:42:42.207Z,20.57
2022-09-28T15:45:23.378Z,20.63
2022-09-28T15:47:49.769Z,20.65
2022-09-28T15:50:22.668Z,20.64
2022-09-28T15:52:53.799Z,20.64
2022-09-28T15:55:24.102Z,20.57
2022-09-28T15:57:50.889Z,20.27
2022-09-28T16:00:26.951Z,20.19
2022-09-28T16:02:57.714Z,20.47
2022-09-28T16:05:34.877Z,20.54
2022-09-28T16:08:02.164Z,20.59
2022-09-28T16:10:30.440Z,20.60
2022-09-28T16:12:59.494Z,20.67
2022-09-28T16:15:27.940Z,20.66
2022-09-28T16:17:55.806Z,20.66
2022-09-28T16:20:24.886Z,20.71
2022-09-28T16:22:52.565Z,20.60
2022-09-28T16:25:20.465Z,20.27
2022-09-28T16:27:46.813Z,20.10
2022-09-28T16:30:15.782Z,20.34
2022-09-28T16:32:49.134Z,20.46
2022-09-28T16:35:17.197Z,20.58
2022-09-28T16:37:43.589Z,20.59
2022-09-28T16:40:11.706Z,20.64
2022-09-28T16:42:38.457Z,20.66
2022-09-28T16:45:05.454Z,20.64
2022-09-28T16:47:32.202Z,20.64
2022-09-28T16:49:58.566Z,20.67
2022-09-28T16:52:24.885Z,20.58
2022-09-28T16:54:52.126Z,20.30
2022-09-28T16:57:19.846Z,20.16
2022-09-28T16:59:46.158Z,20.41
2022-09-28T17:02:35.434Z,20.51
2022-09-28T17:05:01.186Z,20.56
2022-09-28T17:07:27.685Z,20.60
2022-09-28T17:09:54.002Z,20.62
2022-09-28T17:12:22.857Z,20.59
2022-09-28T17:14:49.208Z,20.60
2022-09-28T17:17:17.211Z,20.62
2022-09-28T17:19:43.737Z,20.63
2022-09-28T17:22:10.080Z,20.41
2022-09-28T17:24:36.403Z,20.19
2022-09-28T17:27:03.136Z,20.36
2022-09-28T17:29:30.840Z,20.48
2022-09-28T17:31:57.327Z,20.49
2022-09-28T17:34:23.668Z,20.53
2022-09-28T17:36:50.083Z,20.56
2022-09-28T17:39:17.467Z,20.56
2022-09-28T17:41:44.103Z,20.58
2022-09-28T17:44:10.708Z,20.62
2022-09-28T17:46:39.917Z,20.36
2022-09-28T17:49:07.792Z,20.11
2022-09-28T17:51:35.548Z,20.23
2022-09-28T17:54:01.979Z,20.41
2022-09-28T17:56:31.876Z,20.44
2022-09-28T17:58:59.775Z,20.48
2022-09-28T18:01:26.157Z,20.51
2022-09-28T18:03:53.835Z,20.54
2022-09-28T18:06:20.170Z,20.55
2022-09-28T18:08:46.549Z,20.55
2022-09-28T18:11:12.881Z,20.59
2022-09-28T18:13:39.420Z,20.60
2022-09-28T18:16:06.262Z,20.35
2022-09-28T18:18:32.975Z,20.12
2022-09-28T18:21:01.223Z,20.27
2022-09-28T18:23:27.587Z,20.37
2022-09-28T18:25:53.879Z,20.49
2022-09-28T18:28:20.261Z,20.52
2022-09-28T18:30:46.731Z,20.49
2022-09-28T18:33:13.970Z,20.52
2022-09-28T18:35:40.841Z,20.56
2022-09-28T18:38:08.468Z,20.56
2022-09-28T18:40:34.943Z,20.56
2022-09-28T18:43:01.347Z,20.55
2022-09-28T18:45:27.706Z,20.49
2022-09-28T18:47:54.078Z,20.24
2022-09-28T18:50:20.421Z,20.12
2022-09-28T18:52:46.821Z,20.27
2022-09-28T18:55:14.512Z,20.42
2022-09-28T18:57:40.836Z,20.44
2022-09-28T19:00:09.225Z,20.47
2022-09-28T19:02:36.358Z,20.52
2022-09-28T19:05:03.389Z,20.48
2022-09-28T19:07:29.709Z,20.51
2022-09-28T19:09:56.040Z,20.52
2022-09-28T19:12:23.683Z,20.48
2022-09-28T19:14:49.997Z,20.42
2022-09-28T19:17:16.388Z,20.15
2022-09-28T19:19:42.776Z,20.03
2022-09-28T19:22:09.240Z,20.25
2022-09-28T19:24:35.649Z,20.35
2022-09-28T19:27:01.993Z,20.40
2022-09-28T19:29:29.632Z,20.43
2022-09-28T19:31:55.975Z,20.47
2022-09-28T19:34:22.416Z,20.46
2022-09-28T19:36:48.767Z,20.45
2022-09-28T19:39:15.192Z,20.50
2022-09-28T19:41:44.347Z,20.53
2022-09-28T19:44:12.251Z,20.50
2022-09-28T19:46:40.358Z,20.31
2022-09-28T19:49:07.774Z,20.03
2022-09-28T19:51:34.197Z,20.15
2022-09-28T19:54:01.073Z,20.34
2022-09-28T19:56:27.928Z,20.38
2022-09-28T19:58:54.240Z,20.42
2022-09-28T20:01:20.642Z,20.46
2022-09-28T20:03:48.304Z,20.47
2022-09-28T20:06:17.306Z,20.48
2022-09-28T20:08:44.792Z,20.48
2022-09-28T20:11:11.286Z,20.47
2022-09-28T20:13:37.704Z,20.39
2022-09-28T20:16:04.728Z,20.14
2022-09-28T20:18:32.213Z,20.04
2022-09-28T20:21:02.094Z,20.22
2022-09-28T20:23:28.456Z,20.31
2022-09-28T20:25:54.809Z,20.41
2022-09-28T20:28:21.247Z,20.41
2022-09-28T20:30:47.629Z,20.48
2022-09-28T20:33:19.118Z,20.48
2022-09-28T20:35:53.879Z,20.51
2022-09-28T20:38:21.612Z,20.47
2022-09-28T20:40:48.046Z,20.48
2022-09-28T20:43:14.465Z,20.48
2022-09-28T20:45:40.796Z,20.51
2022-09-28T20:48:07.224Z,20.38
2022-09-28T20:50:33.708Z,20.11
2022-09-28T20:53:00.032Z,20.06
2022-09-28T20:55:27.847Z,20.23
2022-09-28T20:57:54.222Z,20.32
2022-09-28T21:00:20.904Z,20.36
2022-09-28T21:02:50.992Z,20.40
2022-09-28T21:05:17.406Z,20.44
2022-09-28T21:07:43.722Z,20.42
2022-09-28T21:10:10.280Z,20.47
2022-09-28T21:12:37.931Z,20.45
2022-09-28T21:15:06.102Z,20.49
2022-09-28T21:17:32.613Z,20.43
2022-09-28T21:19:58.965Z,20.12
2022-09-28T21:22:25.286Z,20.03
2022-09-28T21:24:51.602Z,20.21
2022-09-28T21:27:17.936Z,20.30
2022-09-28T21:29:45.540Z,20.37
2022-09-28T21:32:11.943Z,20.46
2022-09-28T21:34:38.262Z,20.41
2022-09-28T21:37:05.384Z,20.48
2022-09-28T21:39:31.745Z,20.49
2022-09-28T21:41:58.166Z,20.42
2022-09-28T21:44:24.508Z,20.45
2022-09-28T21:46:52.080Z,20.35
2022-09-28T21:49:18.470Z,20.06
2022-09-28T21:51:44.814Z,20.14
2022-09-28T21:54:11.250Z,20.27
2022-09-28T21:56:37.617Z,20.35
2022-09-28T21:59:03.968Z,20.41
2022-09-28T22:01:30.339Z,20.43
2022-09-28T22:03:58.081Z,20.43
2022-09-28T22:06:25.523Z,20.45
2022-09-28T22:08:51.853Z,20.45
2022-09-28T22:11:19.727Z,20.41
2022-09-28T22:13:46.947Z,20.14
2022-09-28T22:16:14.085Z,20.01
2022-09-28T22:18:40.819Z,20.17
2022-09-28T22:21:10.012Z,20.26
2022-09-28T22:23:37.403Z,20.34
2022-09-28T22:26:05.014Z,20.37
2022-09-28T22:28:31.362Z,20.40
2022-09-28T22:30:57.829Z,20.39
2022-09-28T22:33:24.577Z,20.41
2022-09-28T22:35:51.122Z,20.40
2022-09-28T22:38:18.829Z,20.44
2022-09-28T22:40:48.248Z,20.23
2022-09-28T22:43:14.683Z,20.01
2022-09-28T22:45:41.113Z,20.11
2022-09-28T22:48:07.515Z,20.26
2022-09-28T22:50:33.888Z,20.31
2022-09-28T22:53:00.500Z,20.37
2022-09-28T22:55:28.188Z,20.36
2022-09-28T22:57:54.533Z,20.36
2022-09-28T23:00:20.855Z,20.39
2022-09-28T23:02:47.384Z,20.42
2022-09-28T23:05:13.816Z,20.40
2022-09-28T23:07:40.218Z,20.45
2022-09-28T23:10:06.819Z,20.42
2022-09-28T23:12:34.511Z,20.18
2022-09-28T23:15:00.819Z,19.98
2022-09-28T23:17:27.272Z,20.10
2022-09-28T23:19:53.772Z,20.21
2022-09-28T23:22:20.101Z,20.24
2022-09-28T23:24:46.426Z,20.33
2022-09-28T23:27:12.858Z,20.31
2022-09-28T23:29:40.599Z,20.34
2022-09-28T23:32:06.928Z,20.35
2022-09-28T23:34:33.249Z,20.35
2022-09-28T23:36:59.650Z,20.38
2022-09-28T23:39:26.107Z,20.38
2022-09-28T23:41:52.574Z,20.13
2022-09-28T23:44:19.027Z,20.03
2022-09-28T23:46:46.826Z,20.16
2022-09-28T23:49:13.449Z,20.25
2022-09-28T23:51:39.902Z,20.26
2022-09-28T23:54:06.444Z,20.33
2022-09-28T23:56:32.803Z,20.39
2022-09-28T23:58:59.213Z,20.42
